Time;durP1;ratioP1;P1;durP2;ratioP2;P2;SDS_P1;SDS_P2;PMS_P1;PMS_P2;Temp;Humidity;BMP_temperature;BMP_pressure;BME280_temperature;BME280_humidity;BME280_pressure;Samples;Min_cycle;Max_cycle;Signal;HPM_P1;HPM_P2
2022/05/21 05:55:27;;;;;;;;;;;;;;;;;;;;;
2022/05/21 06:05:22;;;;;;;;;4.75;4.25;;;;;17.12;56.81;102052.34;6155854;23;46373;-84
2022/05/21 06:15:09;;;;;;;;;4.25;4.00;;;;;17.31;55.95;102038.84;6035818;23;46002;-83
2022/05/21 06:21:45;;;;;;;;;6.25;4.25;;;;;17.42;55.40;102048.47;6054872;23;45632;-84
2022/05/21 06:23:53;;;;;;;;;4.00;4.00;;;;;17.42;55.29;102048.47;6073922;23;45320;-83
2022/05/21 06:26:49;;;;;;;;;4.00;4.00;;;;;17.46;55.19;102044.00;6128776;23;47562;-84
2022/05/21 06:29:21;;;;;;;;;1.25;0.00;;;;;17.53;54.97;102047.47;6128403;23;45417;-84
2022/05/21 06:32:21;;;;;;;;;2.00;2.00;;;;;17.57;54.60;102047.44;6128831;23;45310;-84
2022/05/21 06:34:58;;;;;;;;;4.00;4.00;;;;;17.60;54.46;102044.72;6238265;22;45237;-84
2022/05/21 06:37:51;;;;;;;;;;;;;;;;;;;;;
2022/05/21 06:43:47;;;;;;;;;5.25;4.25;;;;;17.79;53.92;102042.75;6281661;22;45469;-84
2022/05/21 06:46:20;;;;;;;;;4.75;4.75;;;;;17.88;54.32;102052.38;6281542;22;45444;-84
2022/05/21 06:49:19;;;;;;;;;;;;;;;;;;;;;
2022/05/21 06:51:45;;;;;;;;;2.33;2.33;;;;;17.99;53.59;102046.91;6294890;22;71583;-83
2022/05/21 06:54:15;;;;;;;;;2.00;2.00;;;;;18.04;53.50;102048.66;6280821;22;45229;-84
2022/05/21 06:57:08;;;;;;;;;3.00;3.00;;;;;18.11;53.16;102044.09;6280566;22;45507;-84
2022/05/21 06:59:55;;;;;;;;;2.33;2.33;;;;;18.16;52.53;102042.25;6260854;22;46552;-84
2022/05/21 07:02:22;;;;;;;;;1.67;1.67;;;;;18.25;53.19;102047.44;6307332;22;45361;-84
2022/05/21 07:07:45;;;;;;;;;3.00;2.00;;;;;18.44;52.45;102050.72;6309103;22;45380;-84
2022/05/21 07:10:43;;;;;;;;;;;;;;;;;;;;;
2022/05/21 07:13:37;;;;;;;;;4.00;4.00;;;;;18.55;52.28;102047.91;6265841;22;72518;-88
2022/05/21 07:16:57;;;;;;;;;;;;;;;;;;;;;
2022/05/21 07:39:03;;;;;;;;;2.33;1.33;;;;;19.07;49.56;102060.38;6301475;22;45532;-85
2022/05/21 07:45:41;;;;;;;;;;;;;;;;;;;;;
2022/05/21 07:48:21;;;;;;;;;;;;;;;;;;;;;
2022/05/21 07:51:04;;;;;;;;;0.33;0.33;;;;;19.34;48.62;102050.09;6306229;22;72900;-85
2022/05/21 07:53:38;;;;;;;;;1.33;0.00;;;;;19.37;47.74;102040.22;6280593;22;45362;-85
2022/05/21 07:56:17;;;;;;;;;1.00;1.00;;;;;19.43;47.75;102047.22;6279979;22;45334;-87
2022/05/21 07:59:11;;;;;;;;;1.67;0.67;;;;;19.49;47.94;102055.13;6307890;22;45353;-86
2022/05/21 08:02:00;;;;;;;;;1.00;1.00;;;;;19.54;47.34;102061.28;6279880;22;45291;-86
2022/05/21 08:04:25;;;;;;;;;0.33;0.33;;;;;19.62;47.39;102055.78;6307038;22;45145;-84
2022/05/21 08:07:34;;;;;;;;;2.00;0.33;;;;;19.64;47.28;102042.38;6308044;22;45171;-85
2022/05/21 08:10:12;;;;;;;;;1.00;1.00;;;;;19.73;46.95;102045.78;6306386;22;45464;-86
2022/05/21 08:12:56;;;;;;;;;0.33;0.33;;;;;19.78;46.94;102043.88;6282584;22;45376;-90
2022/05/21 08:15:30;;;;;;;;;2.00;1.00;;;;;19.89;46.65;102051.69;6283110;22;45265;-85
2022/05/21 08:18:00;;;;;;;;;2.67;0.67;;;;;19.98;46.87;102046.13;6307106;22;45275;-85
2022/05/21 08:20:27;;;;;;;;;2.00;1.00;;;;;20.02;46.68;102041.56;6281510;22;45725;-85
2022/05/21 08:28:34;;;;;;;;;0.67;0.67;;;;;20.15;45.91;102042.19;6309969;22;45433;-86
2022/05/21 08:31:00;;;;;;;;;1.33;1.00;;;;;20.18;46.09;102040.34;6307045;22;46925;-86
2022/05/21 08:33:27;;;;;;;;;1.33;0.00;;;;;20.25;45.91;102043.72;6309810;22;45529;-83
2022/05/21 08:35:53;;;;;;;;;1.67;1.00;;;;;20.28;45.58;102033.84;6281631;22;45393;-84
2022/05/21 08:38:26;;;;;;;;;0.33;0.33;;;;;20.39;45.89;102041.59;6281228;22;45243;-84
2022/05/21 08:41:29;;;;;;;;;2.00;0.67;;;;;20.46;45.33;102035.19;6281365;22;47195;-85
2022/05/21 08:43:58;;;;;;;;;3.00;2.67;;;;;20.54;45.44;102043.06;6221718;22;45407;-85
2022/05/21 08:47:01;;;;;;;;;3.00;2.00;;;;;20.62;45.28;102034.88;6281601;22;45188;-84
2022/05/21 08:49:55;;;;;;;;;1.00;1.00;;;;;20.69;44.86;102025.78;6308916;22;45486;-84
2022/05/21 08:52:53;;;;;;;;;1.00;1.00;;;;;20.70;44.66;102025.72;6307797;22;46879;-84
2022/05/21 08:55:28;;;;;;;;;2.00;1.00;;;;;20.74;44.94;102031.00;6281576;22;45804;-84
2022/05/21 08:58:29;;;;;;;;;1.33;1.33;;;;;20.79;44.41;102029.94;6281211;22;45304;-84
2022/05/21 09:00:55;;;;;;;;;0.67;0.67;;;;;20.80;44.43;102026.38;6282213;22;45421;-83
2022/05/21 09:03:35;;;;;;;;;1.00;1.00;;;;;20.79;43.92;102021.03;6310182;22;45433;-83
2022/05/21 09:06:42;;;;;;;;;1.00;1.00;;;;;20.76;43.92;102024.69;6281211;22;45459;-82
2022/05/21 09:09:22;;;;;;;;;0.67;0.67;;;;;20.76;44.22;102021.13;6281201;22;45201;-80
2022/05/21 09:11:50;;;;;;;;;1.67;1.67;;;;;20.74;44.56;102010.44;6282998;22;45370;-86
2022/05/21 09:14:33;;;;;;;;;0.67;0.67;;;;;20.81;44.82;102011.19;6303023;22;46452;-85
2022/05/21 09:17:00;;;;;;;;;3.33;2.00;;;;;20.87;44.52;102005.66;6280545;22;45228;-86
2022/05/21 09:19:36;;;;;;;;;2.00;2.00;;;;;20.92;44.17;101998.38;6304525;22;45595;-86
2022/05/21 09:22:13;;;;;;;;;2.67;2.33;;;;;20.97;43.99;102004.50;6279869;22;45478;-87
2022/05/21 09:24:56;;;;;;;;;1.00;1.00;;;;;21.01;43.96;102000.84;6280172;22;48132;-88
2022/05/21 09:27:41;;;;;;;;;2.00;1.00;;;;;21.07;44.04;101994.44;6280772;22;45621;-90
2022/05/21 09:30:27;;;;;;;;;2.33;1.67;;;;;21.09;44.25;101989.88;6280769;22;45315;-87
2022/05/21 09:33:02;;;;;;;;;3.67;0.67;;;;;21.10;44.14;101992.53;6284354;22;45505;-88
2022/05/21 09:35:51;;;;;;;;;1.67;1.67;;;;;21.07;44.55;101986.41;6289661;22;46496;-92
2022/05/21 09:38:25;;;;;;;;;2.00;2.00;;;;;21.08;44.69;101982.78;6283610;22;45302;-93
2022/05/21 09:41:11;;;;;;;;;1.33;1.33;;;;;21.18;44.72;101978.94;6285564;22;45316;-89
2022/05/21 09:46:31;;;;;;;;;1.00;1.00;;;;;21.42;44.49;101984.56;6281171;22;45468;-85
2022/05/21 09:49:28;;;;;;;;;1.33;1.33;;;;;21.50;44.25;101971.81;6278013;22;45427;-86
2022/05/21 09:51:56;;;;;;;;;2.00;1.00;;;;;21.55;44.26;101983.28;6282396;22;45346;-87
2022/05/21 09:54:26;;;;;;;;;1.00;1.00;;;;;21.60;44.11;101986.69;6284050;22;45537;-86
2022/05/21 09:56:53;;;;;;;;;4.00;4.00;;;;;21.61;44.17;101974.16;6284697;22;45545;-87
2022/05/21 09:59:30;;;;;;;;;2.00;1.33;;;;;21.67;44.14;101968.59;6292475;22;44620;-89
2022/05/21 10:02:15;;;;;;;;;2.33;1.67;;;;;21.70;44.07;101965.81;6284475;22;44721;-88
2022/05/21 10:04:48;;;;;;;;;2.67;2.00;;;;;21.72;43.79;101961.31;6278026;22;45595;-91
2022/05/21 10:13:07;;;;;;;;;1.67;0.67;;;;;21.98;43.86;101971.22;6279083;22;45520;-88
2022/05/21 10:15:42;;;;;;;;;2.00;2.00;;;;;22.08;43.89;101963.75;6278564;22;45242;-87
2022/05/21 10:18:33;;;;;;;;;3.00;3.00;;;;;22.05;43.36;101955.81;6278480;22;47671;-88
2022/05/21 10:21:04;;;;;;;;;2.00;1.33;;;;;22.01;43.53;101965.75;6280559;22;45271;-76
2022/05/21 10:24:07;;;;;;;;;4.00;2.00;;;;;22.00;43.55;101956.84;6288076;22;44811;-94
2022/05/21 10:27:06;;;;;;;;;2.00;2.00;;;;;22.15;43.17;101965.31;6210863;22;44982;-96
2022/05/21 10:29:56;;;;;;;;;1.67;1.67;;;;;22.34;43.66;101962.94;6292272;22;47114;-89
2022/05/21 10:33:02;;;;;;;;;3.33;3.33;;;;;22.50;43.33;101957.94;6298674;22;44696;-91
2022/05/21 10:36:06;;;;;;;;;3.00;2.67;;;;;22.63;42.93;101959.25;6295625;22;45290;-90
2022/05/21 10:38:43;;;;;;;;;3.00;2.00;;;;;22.76;42.54;101963.28;6264563;22;45034;-91
2022/05/21 10:41:39;;;;;;;;;4.33;4.33;;;;;22.82;42.47;101956.81;6287711;22;46970;-94
2022/05/21 10:44:33;;;;;;;;;4.00;4.00;;;;;22.90;42.77;101958.28;6286810;22;44959;-89
2022/05/21 10:47:19;;;;;;;;;6.00;6.00;;;;;22.93;42.47;101951.03;6280866;22;45409;-86
2022/05/21 10:50:33;;;;;;;;;;;;;;;;;;;;;
2022/05/21 10:53:08;;;;;;;;;26.00;22.25;;;;;23.24;42.25;101946.34;6279608;22;76058;-91
2022/05/21 10:56:00;;;;;;;;;3.00;3.00;;;;;23.48;42.08;101940.97;6282119;22;45344;-95
2022/05/21 10:58:49;;;;;;;;;2.67;2.33;;;;;23.63;41.44;101943.06;6279275;22;45411;-96
2022/05/21 11:01:39;;;;;;;;;5.00;4.00;;;;;23.71;41.29;101935.59;6280925;22;45402;-96
2022/05/21 11:04:42;;;;;;;;;3.67;2.67;;;;;23.94;41.25;101929.28;6278234;22;47670;-94
2022/05/21 11:07:32;;;;;;;;;2.67;2.33;;;;;24.17;40.71;101925.66;6278937;22;45094;-91
2022/05/21 11:10:33;;;;;;;;;;;;;;;;;;;;;
2022/05/21 11:13:51;;;;;;;;;2.00;2.00;;;;;24.48;40.04;101920.81;6290275;22;72263;-93
2022/05/21 11:16:46;;;;;;;;;2.67;2.67;;;;;24.50;39.76;101919.81;6226985;22;46850;-95
2022/05/21 11:19:37;;;;;;;;;2.00;2.00;;;;;24.45;39.87;101912.88;6277288;22;44796;-88
2022/05/21 11:22:44;;;;;;;;;5.33;5.33;;;;;24.36;40.27;101906.91;6274732;22;45319;-89
2022/05/21 11:25:49;;;;;;;;;4.33;3.33;;;;;24.31;40.45;101911.59;6242708;22;45522;-89
2022/05/21 11:28:38;;;;;;;;;;;;;;;;;;;;;
2022/05/21 11:37:19;;;;;;;;;3.67;1.67;;;;;24.43;39.74;101905.72;6276912;22;71414;-88
2022/05/21 11:37:23;;;;;;;;;4.67;3.33;;;;;24.58;39.56;101901.50;6280189;22;45379;-86
2022/05/21 11:39:51;;;;;;;;;4.00;2.33;;;;;24.60;39.09;101898.75;6304954;22;46830;-89
2022/05/21 11:42:47;;;;;;;;;;;;;;;;;;;;;
2022/05/21 11:45:35;;;;;;;;;;;;;;;;;;;;;
2022/05/21 11:48:16;;;;;;;;;4.00;4.00;;;;;24.96;39.12;101889.94;6281120;22;71874;-92
2022/05/21 11:50:53;;;;;;;;;2.67;2.00;;;;;25.06;39.20;101885.88;6283743;22;47151;-90
2022/05/21 11:53:51;;;;;;;;;;;;;;;;;;;;;
2022/05/21 11:59:58;;;;;;;;;3.00;2.00;;;;;25.42;38.36;101869.84;6250414;22;45224;-90
2022/05/21 12:02:28;;;;;;;;;5.00;2.67;;;;;25.42;38.45;101867.16;6282785;22;47351;-89
2022/05/21 12:04:57;;;;;;;;;3.33;3.33;;;;;25.44;38.05;101867.06;6275821;22;46014;-81
2022/05/21 12:08:38;;;;;;;;;1.33;1.33;;;;;25.49;38.00;101862.31;6273794;22;45432;-87
2022/05/21 12:11:09;;;;;;;;;3.00;3.00;;;;;25.68;38.35;101860.47;6184467;22;45540;-80
2022/05/21 12:13:34;;;;;;;;;1.00;1.00;;;;;25.82;37.91;101858.91;6275683;22;46366;-80
2022/05/21 12:16:01;;;;;;;;;2.00;2.00;;;;;25.85;37.04;101864.16;6273183;22;45318;-81
2022/05/21 12:18:42;;;;;;;;;2.67;2.00;;;;;25.96;36.80;101860.00;6274682;22;45268;-79
2022/05/21 12:21:40;;;;;;;;;3.00;3.00;;;;;26.04;36.94;101854.22;6277238;22;45318;-79
2022/05/21 12:24:07;;;;;;;;;2.00;1.50;;;;;26.11;36.41;101852.06;6273084;22;47737;-80
2022/05/21 12:26:36;;;;;;;;;3.00;3.00;;;;;26.13;36.32;101851.03;6273493;22;45534;-79
2022/05/21 12:29:22;;;;;;;;;2.67;2.67;;;;;26.17;36.20;101847.25;6274703;22;45433;-81
2022/05/21 12:31:53;;;;;;;;;4.00;3.00;;;;;26.26;36.27;101847.72;6269879;22;45681;-81
2022/05/21 12:34:27;;;;;;;;;3.00;2.00;;;;;26.34;36.22;101840.09;6275322;22;46269;-82
2022/05/21 12:37:31;;;;;;;;;2.67;2.67;;;;;26.36;35.51;101830.94;6273795;22;46326;-83
2022/05/21 12:40:18;;;;;;;;;3.00;2.00;;;;;26.46;35.53;101822.34;6274906;22;45336;-82
2022/05/21 12:42:51;;;;;;;;;4.67;2.67;;;;;26.60;35.82;101822.53;6275309;22;45383;-85
2022/05/21 12:45:39;;;;;;;;;3.67;3.67;;;;;26.67;35.58;101825.75;6274215;22;46019;-82
2022/05/21 12:48:31;;;;;;;;;3.00;2.67;;;;;26.70;35.12;101826.47;6275685;22;45417;-84
2022/05/21 12:51:03;;;;;;;;;2.67;2.67;;;;;26.76;35.22;101811.78;6278339;22;45238;-83
2022/05/21 12:53:44;;;;;;;;;2.67;2.67;;;;;26.81;34.88;101815.06;6276275;22;45500;-83
2022/05/21 12:56:12;;;;;;;;;4.00;3.00;;;;;26.93;35.03;101824.34;6275627;22;47106;-85
2022/05/21 12:58:39;;;;;;;;;15.25;14.00;;;;;26.91;34.76;101812.75;6276390;22;45447;-82
2022/05/21 13:01:10;;;;;;;;;5.33;5.00;;;;;26.80;34.53;101808.78;6275967;22;45194;-82
2022/05/21 13:03:40;;;;;;;;;3.67;3.67;;;;;26.87;34.77;101817.44;6277535;22;45350;-83
2022/05/21 13:06:12;;;;;;;;;2.00;2.00;;;;;26.94;34.79;101808.03;6277180;22;47400;-84
2022/05/21 13:08:41;;;;;;;;;7.00;6.67;;;;;27.03;34.45;101807.53;6276726;22;45493;-85
2022/05/21 13:11:20;;;;;;;;;53.00;43.00;;;;;27.15;34.66;101796.97;6276765;22;45300;-85
2022/05/21 13:13:59;;;;;;;;;38.00;34.25;;;;;27.15;34.72;101794.28;6273979;22;45997;-83
2022/05/21 13:16:31;;;;;;;;;5.67;5.67;;;;;27.10;34.45;101791.81;6276605;22;47588;-83
2022/05/21 13:19:18;;;;;;;;;;;;;;;;;;;;;
2022/05/21 13:22:12;;;;;;;;;21.50;20.00;;;;;26.77;34.27;101789.19;6276745;22;67769;-84
2022/05/21 13:32:03;;;;;;;;;1.00;1.00;;;;;26.88;34.61;101778.66;6192360;22;45230;-83
2022/05/21 13:35:05;;;;;;;;;;;;;;;;;;;;;
2022/05/21 13:38:22;;;;;;;;;1.00;1.00;;;;;27.44;34.03;101779.97;6276510;22;70938;-83
2022/05/21 13:41:39;;;;;;;;;;;;;;;;;;;;;
2022/05/21 13:44:25;;;;;;;;;;;;;;;;;;;;;
2022/05/21 13:47:27;;;;;;;;;;;;;;;;;;;;;
2022/05/21 13:50:19;;;;;;;;;1.67;1.67;;;;;28.00;32.26;101757.78;6246137;22;72716;-83
2022/05/21 13:53:02;;;;;;;;;;;;;;;;;;;;;
2022/05/21 13:55:38;;;;;;;;;;;;;;;;;;;;;
2022/05/21 13:58:56;;;;;;;;;;;;;;;;;;;;;
2022/05/21 14:15:50;;;;;;;;;;;;;;;;;;;;;
2022/05/21 14:22:34;;;;;;;;;;;;;;;;;;;;;
2022/05/21 14:25:25;;;;;;;;;2.67;2.00;;;;;29.02;30.71;101717.91;6244675;22;67492;-84
2022/05/21 14:28:10;;;;;;;;;;;;;;;;;;;;;
2022/05/21 14:31:29;;;;;;;;;;;;;;;;;;;;;
2022/05/21 14:34:05;;;;;;;;;3.00;1.00;;;;;29.00;30.42;101698.16;6245720;22;70471;-83
2022/05/21 14:36:40;;;;;;;;;2.67;2.67;;;;;28.95;30.79;101689.44;6245644;22;45253;-82
2022/05/21 14:39:07;;;;;;;;;2.00;2.00;;;;;29.03;30.70;101685.28;6279228;22;45382;-82
2022/05/21 14:41:43;;;;;;;;;2.00;2.00;;;;;29.16;30.35;101681.75;6276195;22;46941;-83
2022/05/21 14:44:28;;;;;;;;;3.67;3.67;;;;;29.27;30.24;101683.75;6276487;22;45374;-82
2022/05/21 14:52:49;;;;;;;;;1.67;1.00;;;;;29.66;29.90;101672.03;6277733;22;45319;-82
2022/05/21 14:52:49;;;;;;;;;2.00;2.00;;;;;29.51;29.89;101675.78;6278649;22;45263;-83
2022/05/21 14:55:15;;;;;;;;;1.00;1.00;;;;;29.79;29.72;101669.34;6276674;22;45348;-83
2022/05/21 14:57:47;;;;;;;;;2.00;2.00;;;;;29.76;29.44;101675.84;6277044;22;45358;-83
2022/05/21 15:00:23;;;;;;;;;2.00;2.00;;;;;29.71;29.62;101672.59;6278344;22;45208;-83
2022/05/21 15:03:00;;;;;;;;;1.00;1.00;;;;;29.76;29.09;101680.44;6278116;22;45429;-83
2022/05/21 15:05:33;;;;;;;;;1.00;1.00;;;;;29.82;28.92;101677.28;6275583;22;45390;-83
2022/05/21 15:08:15;;;;;;;;;2.33;2.00;;;;;29.87;29.13;101669.69;6276152;22;45421;-83
2022/05/21 15:10:48;;;;;;;;;1.67;1.00;;;;;29.89;29.14;101670.44;6302179;22;45370;-83
2022/05/21 15:13:14;;;;;;;;;2.00;2.00;;;;;29.98;29.00;101675.22;6278045;22;46238;-82
2022/05/21 15:15:42;;;;;;;;;1.67;1.67;;;;;30.02;28.72;101664.97;6278735;22;45149;-83
2022/05/21 15:18:07;;;;;;;;;3.33;2.00;;;;;29.97;28.59;101659.03;6276595;22;45198;-83
2022/05/21 15:20:37;;;;;;;;;2.00;2.00;;;;;30.00;29.14;101658.81;6274160;22;45235;-83
2022/05/21 15:23:07;;;;;;;;;2.67;2.67;;;;;30.06;28.94;101651.09;6276047;22;47639;-83
2022/05/21 15:25:37;;;;;;;;;2.00;2.00;;;;;30.06;29.08;101640.22;6275729;22;45210;-83
2022/05/21 15:28:03;;;;;;;;;16.00;15.75;;;;;30.13;28.96;101632.53;6275728;22;45405;-82
2022/05/21 15:30:37;;;;;;;;;1.67;1.67;;;;;30.25;28.22;101638.94;6278855;22;45133;-83
2022/05/21 15:33:41;;;;;;;;;;;;;;;;;;;;;
2022/05/21 15:37:02;;;;;;;;;1.00;1.00;;;;;30.45;28.61;101634.78;6271041;22;72689;-83
2022/05/21 15:39:52;;;;;;;;;1.00;1.00;;;;;30.46;28.09;101637.34;6300323;22;45176;-82
2022/05/21 15:42:52;;;;;;;;;;;;;;;;;;;;;
2022/05/21 15:49:16;;;;;;;;;;;;;;;;;;;;;
2022/05/21 15:52:08;;;;;;;;;;;;;;;;;;;;;
2022/05/21 15:55:24;;;;;;;;;;;;;;;;;;;;;
2022/05/21 16:01:59;;;;;;;;;;;;;;;;;;;;;
2022/05/21 16:08:15;;;;;;;;;;;;;;;;;;;;;
2022/05/21 16:10:41;;;;;;;;;2.67;2.67;;;;;30.68;27.86;101597.72;6307622;22;74992;-83
2022/05/21 16:16:35;;;;;;;;;;;;;;;;;;;;;
2022/05/21 16:19:19;;;;;;;;;1.67;1.67;;;;;30.88;26.92;101580.78;6306733;22;72794;-83
2022/05/21 16:21:50;;;;;;;;;2.00;2.00;;;;;30.90;27.57;101578.84;6280180;22;45976;-83
2022/05/21 16:24:33;;;;;;;;;;;;;;;;;;;;;
2022/05/21 16:27:31;;;;;;;;;;;;;;;;;;;;;
2022/05/21 16:30:17;;;;;;;;;;;;;;;;;;;;;
2022/05/21 16:32:52;;;;;;;;;2.00;1.33;;;;;31.17;26.71;101572.25;6308136;22;75624;-83
2022/05/21 16:35:53;;;;;;;;;;;;;;;;;;;;;
2022/05/21 16:41:27;;;;;;;;;2.00;2.00;;;;;31.26;27.02;101565.22;6287005;22;45504;-84
2022/05/21 16:47:13;;;;;;;;;;;;;;;;;;;;;
2022/05/21 16:49:49;;;;;;;;;1.67;1.67;;;;;31.33;27.01;101547.41;6306900;22;68789;-83
2022/05/21 16:52:15;;;;;;;;;3.00;2.00;;;;;31.25;26.88;101542.59;6309334;22;45477;-84
2022/05/21 16:54:44;;;;;;;;;2.00;2.00;;;;;31.34;27.42;101535.53;6308851;22;45474;-83
2022/05/21 16:57:12;;;;;;;;;0.00;0.00;;;;;31.77;27.06;101552.06;6308261;22;45269;-88
2022/05/21 16:59:41;;;;;;;;;2.00;2.00;;;;;32.36;26.88;101525.50;6282927;22;45247;-88
2022/05/21 17:02:49;;;;;;;;;;;;;;;;;;;;;
2022/05/21 17:05:24;;;;;;;;;0.33;0.33;;;;;35.53;24.09;101531.63;6308361;22;45557;-87
2022/05/21 17:08:28;;;;;;;;;2.00;2.00;;;;;36.71;22.91;101522.63;6275891;22;44725;-87
2022/05/21 17:11:15;;;;;;;;;;;;;;;;;;;;;
2022/05/21 17:14:11;;;;;;;;;7.75;7.00;;;;;38.17;21.49;101518.22;6285932;22;71112;-86
2022/05/21 17:17:42;;;;;;;;;;;;;;;;;;;;;
2022/05/21 17:20:32;;;;;;;;;1.00;1.00;;;;;37.12;20.87;101516.63;6299564;22;45386;-85
2022/05/21 17:41:51;;;;;;;;;;;;;;;;;;;;;
2022/05/21 17:44:38;;;;;;;;;;;;;;;;;;;;;
2022/05/21 17:47:16;;;;;;;;;4.00;3.33;;;;;31.98;26.19;101499.59;6168266;23;71479;-83
2022/05/21 17:50:15;;;;;;;;;;;;;;;;;;;;;
2022/05/21 17:53:16;;;;;;;;;2.00;1.33;;;;;31.23;26.54;101502.88;6221584;22;72086;-84
2022/05/21 17:55:45;;;;;;;;;5.50;5.50;;;;;30.78;27.38;101503.59;6203402;22;45362;-87
2022/05/21 17:58:33;;;;;;;;;5.00;4.33;;;;;30.42;27.70;101501.81;6292852;22;44822;-83
2022/05/21 18:01:16;;;;;;;;;;;;;;;;;;;;;
2022/05/21 18:03:43;;;;;;;;;6.00;5.75;;;;;30.04;28.11;101511.81;6236047;22;73855;-78
2022/05/21 18:06:09;;;;;;;;;6.25;6.25;;;;;29.76;28.71;101518.41;6317726;22;46301;-79
2022/05/21 18:08:40;;;;;;;;;9.25;9.00;;;;;29.46;29.05;101522.31;6319502;22;45434;-83
2022/05/21 18:11:05;;;;;;;;;5.67;5.67;;;;;29.25;29.74;101523.81;6291769;22;45264;-80
2022/05/21 18:13:37;;;;;;;;;6.50;6.50;;;;;29.05;29.83;101529.75;6320044;22;45291;-83
2022/05/21 18:20:23;;;;;;;;;;;;;;;;;;;;;
2022/05/21 18:22:59;;;;;;;;;3.00;3.00;;;;;28.07;31.11;101527.19;6167550;23;67976;-84
2022/05/21 18:25:24;;;;;;;;;4.00;4.00;;;;;27.82;31.23;101518.88;6295272;22;44846;-81
2022/05/21 18:27:55;;;;;;;;;3.00;3.00;;;;;27.58;31.63;101522.16;6294413;22;47055;-82
2022/05/21 18:30:22;;;;;;;;;3.67;2.33;;;;;27.44;32.38;101522.16;6322578;22;45334;-82
2022/05/21 18:32:48;;;;;;;;;4.00;2.67;;;;;27.34;32.24;101513.72;6294694;22;45366;-82
2022/05/21 18:35:16;;;;;;;;;3.67;2.33;;;;;27.19;32.51;101522.81;6295194;22;45092;-85
2022/05/21 18:37:51;;;;;;;;;2.33;2.33;;;;;27.06;32.79;101520.81;6271210;22;45383;-84
2022/05/21 18:40:17;;;;;;;;;3.67;3.67;;;;;26.91;32.99;101521.72;6322679;22;45348;-82
2022/05/21 18:42:42;;;;;;;;;4.33;3.67;;;;;26.79;33.61;101519.78;6269205;22;45438;-81
2022/05/21 18:45:09;;;;;;;;;2.67;1.67;;;;;26.67;33.54;101525.88;6293185;22;45540;-80
2022/05/21 18:47:35;;;;;;;;;3.00;3.00;;;;;26.50;33.84;101525.00;6319309;22;45339;-81
2022/05/21 18:50:02;;;;;;;;;3.00;3.00;;;;;26.39;34.34;101533.75;6309332;22;45171;-82
2022/05/21 18:52:27;;;;;;;;;3.67;2.00;;;;;26.26;34.13;101534.53;6282089;22;45254;-81
2022/05/21 18:54:53;;;;;;;;;4.00;4.00;;;;;26.15;34.57;101533.31;6307106;22;45625;-81
2022/05/21 18:57:19;;;;;;;;;1.00;1.00;;;;;26.00;35.19;101534.16;6309732;22;45260;-81
2022/05/21 18:59:45;;;;;;;;;3.00;3.00;;;;;25.84;34.67;101530.56;6281500;22;45213;-81
2022/05/21 19:02:13;;;;;;;;;2.00;2.00;;;;;25.65;34.95;101518.06;6281981;22;45307;-82
2022/05/21 19:04:40;;;;;;;;;3.67;3.00;;;;;25.50;35.67;101522.47;6281779;22;45409;-81
2022/05/21 19:07:05;;;;;;;;;5.67;5.67;;;;;25.28;35.85;101529.97;6281709;22;47340;-80
2022/05/21 19:09:31;;;;;;;;;8.00;8.00;;;;;25.07;36.48;101530.13;6282035;22;45173;-80
2022/05/21 19:11:56;;;;;;;;;28.75;24.25;;;;;24.91;36.25;101526.44;6310301;22;45133;-79
2022/05/21 19:14:25;;;;;;;;;18.50;17.75;;;;;24.78;36.60;101522.63;6284293;22;45593;-82
2022/05/21 19:17:53;;;;;;;;;;;;;;;;;;;;;
2022/05/21 19:20:33;;;;;;;;;21.25;19.25;;;;;24.48;37.34;101534.00;6300854;22;73513;-85
2022/05/21 19:23:13;;;;;;;;;;;;;;;;;;;;;
2022/05/21 19:25:55;;;;;;;;;;;;;;;;;;;;;
2022/05/21 19:28:54;;;;;;;;;6.25;6.25;;;;;24.11;38.44;101538.47;6320435;22;74632;-86
2022/05/21 19:31:50;;;;;;;;;;;;;;;;;;;;;
2022/05/21 19:34:56;;;;;;;;;8.75;8.50;;;;;23.85;38.88;101547.75;6276980;22;67794;-84
2022/05/21 19:42:00;;;;;;;;;;;;;;;;;;;;;
2022/05/21 19:44:41;;;;;;;;;15.25;13.75;;;;;23.49;39.45;101545.75;6187541;23;71454;-84
2022/05/21 19:48:00;;;;;;;;;;;;;;;;;;;;;
2022/05/21 19:50:23;;;;;;;;;8.75;7.75;;;;;23.37;39.92;101556.19;6307067;22;44853;-83
2022/05/21 19:52:58;;;;;;;;;15.25;11.25;;;;;23.30;40.12;101563.63;6273071;22;47901;-84
2022/05/21 19:56:01;;;;;;;;;;;;;;;;;;;;;
2022/05/21 19:58:37;;;;;;;;;10.00;8.33;;;;;23.10;40.72;101561.84;6322930;22;69416;-82
2022/05/21 20:01:35;;;;;;;;;10.75;9.00;;;;;23.05;40.68;101563.84;6295838;22;45462;-86
2022/05/21 20:04:11;;;;;;;;;13.75;13.00;;;;;22.99;41.16;101566.75;6298110;22;45455;-84
2022/05/21 20:06:40;;;;;;;;;10.50;9.50;;;;;22.93;41.27;101558.94;6298429;22;45385;-82
2022/05/21 20:09:35;;;;;;;;;;;;;;;;;;;;;
2022/05/21 20:12:13;;;;;;;;;5.33;5.33;;;;;22.80;41.49;101548.72;6328431;22;45338;-84
2022/05/21 20:15:03;;;;;;;;;10.00;9.00;;;;;22.76;41.64;101552.47;6274101;22;46683;-84
2022/05/21 20:17:29;;;;;;;;;6.25;6.25;;;;;22.70;41.99;101546.50;6325547;22;44773;-83
2022/05/21 20:20:55;;;;;;;;;;;;;;;;;;;;;
2022/05/21 20:23:36;;;;;;;;;;;;;;;;;;;;;
2022/05/21 20:27:01;;;;;;;;;;;;;;;;;;;;;
2022/05/21 20:29:46;;;;;;;;;;;;;;;;;;;;;
2022/05/21 20:35:42;;;;;;;;;;;;;;;;;;;;;
2022/05/21 20:38:52;;;;;;;;;;;;;;;;;;;;;
2022/05/21 20:42:00;;;;;;;;;;;;;;;;;;;;;
2022/05/21 20:44:27;;;;;;;;;10.50;10.50;;;;;22.28;43.29;101547.28;6148529;23;68043;-85
2022/05/21 20:50:46;;;;;;;;;;;;;;;;;;;;;
2022/05/21 20:53:28;;;;;;;;;3.33;3.33;;;;;22.12;43.77;101561.28;6320246;22;72090;-84
2022/05/21 20:56:29;;;;;;;;;;;;;;;;;;;;;
2022/05/21 20:59:02;;;;;;;;;4.67;3.67;;;;;22.07;43.99;101565.94;6313287;22;45248;-83
2022/05/21 21:01:37;;;;;;;;;3.67;3.67;;;;;22.04;44.29;101566.06;6290093;22;46602;-83
2022/05/21 21:04:25;;;;;;;;;5.33;4.67;;;;;22.01;44.26;101564.38;6287322;22;45423;-84
2022/05/21 21:07:09;;;;;;;;;20.50;17.50;;;;;22.02;44.40;101560.78;6286542;22;44799;-84
2022/05/21 21:10:15;;;;;;;;;;;;;;;;;;;;;
2022/05/21 21:13:20;;;;;;;;;;;;;;;;;;;;;
2022/05/21 21:16:17;;;;;;;;;6.33;6.33;;;;;21.97;44.57;101585.97;6319226;22;71972;-85
2022/05/21 21:18:52;;;;;;;;;;;;;;;;;;;;;
2022/05/21 21:21:25;;;;;;;;;7.50;4.00;;;;;21.93;44.74;101581.69;6315074;22;72011;-84
2022/05/21 21:24:20;;;;;;;;;5.00;5.00;;;;;21.89;44.78;101583.63;6313372;22;47113;-84
2022/05/21 21:26:56;;;;;;;;;4.75;4.75;;;;;21.84;45.07;101569.50;6294935;22;45322;-85
2022/05/21 21:29:32;;;;;;;;;;;;;;;;;;;;;
2022/05/21 21:32:05;;;;;;;;;5.33;5.33;;;;;21.76;44.99;101582.31;6276035;22;45450;-83
2022/05/21 21:34:37;;;;;;;;;4.00;4.00;;;;;21.73;45.56;101587.78;6288765;22;46948;-82
2022/05/21 21:37:08;;;;;;;;;6.33;4.33;;;;;21.69;45.67;101575.44;6292169;22;45399;-84
2022/05/21 21:39:52;;;;;;;;;4.00;4.00;;;;;21.66;45.48;101580.91;6296507;22;44815;-86
2022/05/21 21:42:22;;;;;;;;;6.00;6.00;;;;;21.61;45.48;101577.53;6295598;22;45354;-83
2022/05/21 21:45:21;;;;;;;;;;;;;;;;;;;;;
2022/05/21 21:50:36;;;;;;;;;5.75;5.00;;;;;21.53;45.83;101573.31;6304977;22;44810;-83
2022/05/21 21:53:05;;;;;;;;;5.25;4.00;;;;;21.51;45.86;101567.13;6267201;22;45347;-82
2022/05/21 21:55:30;;;;;;;;;4.67;4.67;;;;;21.49;45.83;101568.09;6324619;22;45391;-83
2022/05/21 22:03:36;;;;;;;;;6.00;4.67;;;;;21.42;45.54;101546.03;6328748;22;45588;-83
2022/05/21 22:06:13;;;;;;;;;3.00;3.00;;;;;21.42;46.07;101540.66;6299464;22;47238;-85
2022/05/21 22:08:49;;;;;;;;;4.00;4.00;;;;;21.40;45.65;101531.81;6300214;22;45362;-83
2022/05/21 22:11:29;;;;;;;;;;;;;;;;;;;;;
2022/05/21 22:14:45;;;;;;;;;;;;;;;;;;;;;
2022/05/21 22:20:24;;;;;;;;;7.00;4.33;;;;;21.25;46.03;101533.22;6223137;22;44789;-85
2022/05/21 22:23:35;;;;;;;;;;;;;;;;;;;;;
2022/05/21 22:26:59;;;;;;;;;;;;;;;;;;;;;
2022/05/21 22:29:44;;;;;;;;;;;;;;;;;;;;;
2022/05/21 22:32:22;;;;;;;;;4.00;3.33;;;;;21.10;46.68;101531.06;6324108;22;72087;-86
2022/05/21 22:34:57;;;;;;;;;6.33;5.00;;;;;21.05;46.79;101522.31;6276517;22;44818;-85
2022/05/21 22:37:22;;;;;;;;;4.67;4.67;;;;;21.03;46.57;101518.81;6292394;22;45518;-83
2022/05/21 22:40:06;;;;;;;;;6.00;5.00;;;;;20.97;46.94;101508.34;6316641;22;45459;-84
2022/05/21 22:46:17;;;;;;;;;5.00;5.00;;;;;20.78;47.56;101487.56;6314875;22;45393;-85
2022/05/21 22:48:48;;;;;;;;;6.67;6.33;;;;;20.70;47.70;101487.81;6289348;22;45358;-86
2022/05/21 22:51:19;;;;;;;;;4.67;4.67;;;;;20.63;48.14;101485.38;6289673;22;47991;-85
2022/05/21 22:53:45;;;;;;;;;6.00;5.00;;;;;20.53;48.14;101486.59;6318231;22;45393;-84
2022/05/21 22:56:18;;;;;;;;;6.00;5.33;;;;;20.46;48.59;101494.81;6266533;22;44824;-87
2022/05/21 22:58:52;;;;;;;;;7.00;7.00;;;;;20.39;48.82;101495.06;6321591;22;44684;-83